createdAt,value
2017-01-25T03:09:22.264Z,76.96
2017-01-25T03:10:07.363Z,77.62
2017-01-25T03:11:07.341Z,77.44
2017-01-25T03:12:07.320Z,77.15
2017-01-25T03:13:07.299Z,77.81
2017-01-25T03:14:07.285Z,77.62
2017-01-25T03:15:07.260Z,78.09
2017-01-25T03:16:07.243Z,78.38
2017-01-25T03:17:07.222Z,78.94
2017-01-25T03:18:07.199Z,78.28
2017-01-25T03:19:07.181Z,78.56
2017-01-25T03:20:07.158Z,78.85
2017-01-25T03:21:07.141Z,79.22
2017-01-25T03:22:07.124Z,80.07
2017-01-25T03:23:07.098Z,79.03
2017-01-25T03:24:07.081Z,79.03
2017-01-25T03:25:07.063Z,78.28
2017-01-25T03:26:07.036Z,77.44
2017-01-25T03:27:07.022Z,77.15
2017-01-25T03:28:07.002Z,76.87
2017-01-25T03:29:06.990Z,76.77
2017-01-25T03:30:06.966Z,77.34
2017-01-25T03:31:06.939Z,77.44
2017-01-25T03:32:06.918Z,77.53
2017-01-25T03:33:06.902Z,77.44
2017-01-25T03:34:06.880Z,77.81
2017-01-25T03:35:06.859Z,78.28
2017-01-25T03:36:06.842Z,78.28
2017-01-25T03:37:06.818Z,77.44
2017-01-25T03:38:06.800Z,77.06
2017-01-25T03:39:06.776Z,76.4
2017-01-25T03:40:06.760Z,75.83
2017-01-25T03:41:06.747Z,76.02
2017-01-25T03:42:06.716Z,75.45
2017-01-25T03:43:06.708Z,75.92
2017-01-25T03:44:06.679Z,76.21
2017-01-25T03:45:06.667Z,74.13
2017-01-25T03:46:06.639Z,74.88
2017-01-25T03:47:06.617Z,74.88
2017-01-25T03:48:06.594Z,75.26
2017-01-25T03:49:06.582Z,75.45
2017-01-25T03:50:06.560Z,75.17
2017-01-25T03:51:06.539Z,75.26
2017-01-25T03:52:06.521Z,75.45
2017-01-25T03:53:06.506Z,75.26
2017-01-25T03:54:06.480Z,74.98
2017-01-25T03:55:06.469Z,75.36
2017-01-25T03:56:06.441Z,74.88
2017-01-25T03:57:06.418Z,75.07
2017-01-25T03:58:06.404Z,74.88
2017-01-25T03:59:06.377Z,75.17
2017-01-25T04:00:06.364Z,75.73
2017-01-25T04:01:06.339Z,75.64
2017-01-25T04:02:06.316Z,75.54
2017-01-25T04:03:06.304Z,74.88
2017-01-25T04:04:06.284Z,75.73
2017-01-25T04:05:06.264Z,75.64
2017-01-25T04:06:06.238Z,75.64
2017-01-25T04:07:06.219Z,75.83
2017-01-25T04:08:06.201Z,76.11
2017-01-25T04:09:06.181Z,76.68
2017-01-25T04:10:06.163Z,76.77
2017-01-25T04:11:06.146Z,76.96
2017-01-25T04:12:06.122Z,76.77
2017-01-25T04:13:06.105Z,76.77
2017-01-25T04:14:06.077Z,76.4
2017-01-25T04:15:06.060Z,76.21
2017-01-25T04:16:06.039Z,75.45
2017-01-25T04:17:06.020Z,75.64
2017-01-25T04:18:06.005Z,75.64
2017-01-25T04:19:05.981Z,75.64
2017-01-25T04:20:05.966Z,75.64
2017-01-25T04:21:05.940Z,75.36
2017-01-25T04:22:05.919Z,75.92
2017-01-25T04:23:05.906Z,76.21
2017-01-25T04:24:05.885Z,76.21
2017-01-25T04:25:05.865Z,76.68
2017-01-25T04:26:05.846Z,76.58
2017-01-25T04:27:05.826Z,75.92
2017-01-25T04:28:05.801Z,75.45
2017-01-25T04:29:05.781Z,75.64
2017-01-25T04:30:05.760Z,74.69
2017-01-25T04:31:05.748Z,74.04
2017-01-25T04:32:05.722Z,74.32
2017-01-25T04:33:05.705Z,74.32
2017-01-25T04:34:05.682Z,75.07
2017-01-25T04:35:05.666Z,75.36
2017-01-25T04:36:05.639Z,75.26
2017-01-25T04:37:05.650Z,75.64
2017-01-25T04:38:05.611Z,75.64
2017-01-25T04:39:05.585Z,76.11
2017-01-25T04:40:05.560Z,76.21
2017-01-25T04:41:05.545Z,75.64
2017-01-25T04:42:05.523Z,75.45
2017-01-25T04:43:05.504Z,74.98
2017-01-25T04:44:05.483Z,75.17
2017-01-25T04:45:05.466Z,75.54
2017-01-25T04:46:05.446Z,75.73
2017-01-25T04:47:05.424Z,75.45
2017-01-25T04:48:05.409Z,74.88
2017-01-25T04:49:05.383Z,75.45
2017-01-25T04:50:05.364Z,76.11
2017-01-25T04:51:05.346Z,76.3
2017-01-25T04:52:05.323Z,76.96
2017-01-25T04:53:05.324Z,77.06
2017-01-25T04:54:05.284Z,76.87
2017-01-25T04:55:05.274Z,76.87
2017-01-25T04:56:05.247Z,76.77
2017-01-25T04:57:05.625Z,76.87
2017-01-25T04:58:05.207Z,77.34
2017-01-25T04:59:05.187Z,76.96
2017-01-25T05:00:05.169Z,76.77
2017-01-25T05:01:05.149Z,77.34
2017-01-25T05:02:05.129Z,77.25
2017-01-25T05:03:05.104Z,76.87
2017-01-25T05:04:05.087Z,76.58
2017-01-25T05:05:05.066Z,75.83
2017-01-25T05:06:05.050Z,76.21
2017-01-25T05:07:05.028Z,76.11
2017-01-25T05:08:05.006Z,76.58
2017-01-25T05:09:04.991Z,76.77
2017-01-25T05:10:04.968Z,76.77
2017-01-25T05:11:04.946Z,77.34
2017-01-25T05:12:04.925Z,77.06
2017-01-25T05:13:04.905Z,77.44
2017-01-25T05:14:04.896Z,77.44
2017-01-25T05:15:04.867Z,77.25
2017-01-25T05:16:04.874Z,76.68
2017-01-25T05:17:04.827Z,76.02
2017-01-25T05:18:04.814Z,75.54
2017-01-25T05:19:04.790Z,76.21
2017-01-25T05:20:04.774Z,76.96
2017-01-25T05:21:04.750Z,76.96
2017-01-25T05:22:04.728Z,76.58
2017-01-25T05:23:04.711Z,76.11
2017-01-25T05:24:04.687Z,75.54
2017-01-25T05:25:04.671Z,74.98
2017-01-25T05:26:04.650Z,75.45
2017-01-25T05:27:04.634Z,75.64
2017-01-25T05:28:04.613Z,74.88
2017-01-25T05:29:04.595Z,74.22
2017-01-25T05:30:04.574Z,74.13
2017-01-25T05:31:04.552Z,74.13
2017-01-25T05:32:04.531Z,74.22
2017-01-25T05:33:04.513Z,74.6
2017-01-25T05:34:04.491Z,74.79
2017-01-25T05:35:04.867Z,74.13
2017-01-25T05:36:04.453Z,74.04
2017-01-25T05:37:04.436Z,74.32
2017-01-25T05:38:04.412Z,74.98
2017-01-25T05:39:04.392Z,74.69
2017-01-25T05:40:04.376Z,75.64
2017-01-25T05:41:04.357Z,75.45
2017-01-25T05:42:04.337Z,75.45
2017-01-25T05:43:04.314Z,75.64
2017-01-25T05:44:04.302Z,75.64
2017-01-25T05:45:04.275Z,75.36
2017-01-25T05:46:04.260Z,75.07
2017-01-25T05:47:04.237Z,74.98
2017-01-25T05:48:04.217Z,75.83
2017-01-25T05:49:04.195Z,75.73
2017-01-25T05:50:04.174Z,75.45
2017-01-25T05:51:04.181Z,75.64
2017-01-25T05:52:04.135Z,75.36
2017-01-25T05:53:04.117Z,75.45
2017-01-25T05:54:04.091Z,74.41
2017-01-25T05:55:04.075Z,73.28
2017-01-25T05:56:04.062Z,72.91
2017-01-25T05:57:04.037Z,72.44
2017-01-25T05:58:04.027Z,72.62
2017-01-25T05:59:03.999Z,72.34
2017-01-25T06:00:03.978Z,71.4
2017-01-25T06:01:03.956Z,72.06
2017-01-25T06:02:03.938Z,72.34
2017-01-25T06:03:03.925Z,73
2017-01-25T06:04:03.903Z,72.81
2017-01-25T06:05:03.883Z,72.53
2017-01-25T06:06:03.858Z,72.53
2017-01-25T06:07:03.843Z,72.06
2017-01-25T06:08:03.819Z,72.06
2017-01-25T06:09:03.807Z,71.87
2017-01-25T06:10:03.784Z,72.06
2017-01-25T06:11:03.760Z,71.68
2017-01-25T06:12:03.745Z,71.87
2017-01-25T06:13:03.722Z,71.49
2017-01-25T06:14:03.702Z,73.66
2017-01-25T06:15:03.679Z,75.54
2017-01-25T06:16:03.668Z,75.36
2017-01-25T06:17:03.648Z,75.73
2017-01-25T06:18:03.627Z,75.73
2017-01-25T06:19:03.639Z,75.36
2017-01-25T06:20:03.582Z,75.64
2017-01-25T06:21:03.563Z,75.36
2017-01-25T06:22:03.542Z,75.45
2017-01-25T06:23:03.527Z,76.3
2017-01-25T06:24:03.503Z,76.96
2017-01-25T06:25:03.488Z,76.68
2017-01-25T06:26:03.466Z,76.77
2017-01-25T06:27:03.444Z,76.87
2017-01-25T06:28:03.423Z,76.4
2017-01-25T06:29:03.403Z,76.3
2017-01-25T06:30:03.383Z,76.02
2017-01-25T06:31:03.370Z,75.73
2017-01-25T06:32:03.350Z,75.64
2017-01-25T06:33:03.331Z,75.45
2017-01-25T06:34:03.306Z,75.83
2017-01-25T06:35:03.287Z,75.36
2017-01-25T06:36:03.265Z,75.26
2017-01-25T06:37:03.245Z,75.83
2017-01-25T06:38:03.225Z,76.11
2017-01-25T06:39:03.207Z,75.45
2017-01-25T06:40:03.590Z,76.02
2017-01-25T06:41:03.574Z,76.11
2017-01-25T06:42:03.146Z,75.73
2017-01-25T06:43:03.131Z,74.88
2017-01-25T06:44:03.111Z,74.32
2017-01-25T06:45:03.088Z,73.94
2017-01-25T06:46:03.070Z,73.85
2017-01-25T06:47:03.048Z,73.66
2017-01-25T06:48:03.036Z,73.66
2017-01-25T06:49:03.011Z,73.28
2017-01-25T06:50:02.992Z,72.62
2017-01-25T06:51:03.370Z,71.58
2017-01-25T06:52:02.954Z,71.21
2017-01-25T06:53:02.934Z,70.73
2017-01-25T06:54:02.916Z,71.3
2017-01-25T06:55:02.890Z,71.68
2017-01-25T06:56:02.870Z,73.19
2017-01-25T06:57:02.855Z,73.94
2017-01-25T06:58:02.836Z,74.41
2017-01-25T06:59:02.819Z,75.45
2017-01-25T07:00:02.792Z,75.73
2017-01-25T07:01:02.777Z,76.02
2017-01-25T07:02:02.753Z,77.81
2017-01-25T07:03:02.733Z,78.75
2017-01-25T07:04:02.717Z,79.03
2017-01-25T07:05:02.695Z,78.28
2017-01-25T07:06:02.675Z,77.62
2017-01-25T07:07:02.654Z,77.34
2017-01-25T07:08:02.637Z,76.49
2017-01-25T07:09:02.633Z,75.73
2017-01-25T07:10:02.598Z,75.54
2017-01-25T07:11:02.605Z,75.64
2017-01-25T07:12:02.563Z,75.73
2017-01-25T07:13:02.533Z,74.88
2017-01-25T07:14:02.541Z,74.32
2017-01-25T07:15:02.508Z,73.94
2017-01-25T07:16:02.476Z,73.38
2017-01-25T07:17:02.460Z,72.25
2017-01-25T07:18:02.436Z,71.58
2017-01-25T07:19:02.424Z,71.77
2017-01-25T07:20:02.400Z,71.68
2017-01-25T07:21:02.380Z,70.73
2017-01-25T07:22:02.359Z,70.54
2017-01-25T07:23:02.336Z,70.54
2017-01-25T07:24:02.316Z,70.83
2017-01-25T07:25:02.297Z,71.3
2017-01-25T07:26:02.279Z,70.17
2017-01-25T07:27:02.253Z,70.64
2017-01-25T07:28:02.236Z,70.45
2017-01-25T07:29:02.221Z,70.26
2017-01-25T07:30:02.204Z,70.36
2017-01-25T07:31:02.181Z,70.17
2017-01-25T07:32:02.161Z,70.45
2017-01-25T07:33:02.139Z,70.54
2017-01-25T07:34:02.120Z,70.64
2017-01-25T07:35:02.109Z,71.3
2017-01-25T07:36:02.081Z,71.02
2017-01-25T07:37:02.063Z,70.73
2017-01-25T07:38:02.043Z,71.21
2017-01-25T07:39:02.024Z,70.64
2017-01-25T07:40:02.000Z,71.3
2017-01-25T07:41:01.983Z,71.68
2017-01-25T07:42:01.959Z,72.34
2017-01-25T07:43:01.940Z,72.25
2017-01-25T07:44:01.921Z,71.96
2017-01-25T07:45:01.901Z,72.15
2017-01-25T07:46:01.890Z,72.34
2017-01-25T07:47:01.866Z,72.66
2017-01-25T07:48:01.843Z,72.53
2017-01-25T07:49:01.824Z,72.47
2017-01-25T07:50:01.805Z,72.66
2017-01-25T07:51:01.783Z,72.56
2017-01-25T07:52:01.764Z,71.81
2017-01-25T07:53:01.753Z,71.72
2017-01-25T07:54:01.727Z,72.09
2017-01-25T07:55:01.710Z,72.56
2017-01-25T07:56:01.683Z,73.51
2017-01-25T07:57:01.669Z,74.17
2017-01-25T07:58:01.643Z,74.36
2017-01-25T07:59:01.627Z,74.64
2017-01-25T08:00:01.605Z,75.02
2017-01-25T08:01:01.594Z,74.92
2017-01-25T08:02:01.568Z,75.02
2017-01-25T08:03:01.547Z,75.21
2017-01-25T08:04:01.530Z,75.49
2017-01-25T08:05:01.511Z,75.78
2017-01-25T08:06:01.490Z,76.62
2017-01-25T08:07:01.470Z,77.66
2017-01-25T08:08:01.451Z,78.6
2017-01-25T08:09:01.463Z,78.98
2017-01-25T08:10:01.413Z,79.36
2017-01-25T08:11:01.396Z,80.02
2017-01-25T08:12:01.372Z,80.68
2017-01-25T08:13:01.360Z,80.02
2017-01-25T08:14:01.341Z,79.83
2017-01-25T08:15:01.320Z,79.83
2017-01-25T08:16:01.301Z,80.4
2017-01-25T08:17:01.278Z,80.87
2017-01-25T08:18:01.261Z,82.47
2017-01-25T08:19:01.238Z,82.95
2017-01-25T08:20:01.230Z,84.08
2017-01-25T08:21:01.200Z,85.02
2017-01-25T08:22:01.181Z,85.59
2017-01-25T08:23:01.165Z,85.4
2017-01-25T08:24:01.141Z,86.15
2017-01-25T08:25:01.130Z,87.38
2017-01-25T08:26:01.103Z,87.57
2017-01-25T08:27:01.085Z,88.6
2017-01-25T08:28:01.068Z,87.95
2017-01-25T08:29:01.046Z,88.42
2017-01-25T08:30:01.031Z,90.12
2017-01-25T08:31:01.011Z,90.78
2017-01-25T08:32:01.011Z,90.68
2017-01-25T08:33:00.974Z,91.91
2017-01-25T08:34:00.951Z,93.23
2017-01-25T08:35:00.931Z,95.78
2017-01-25T08:36:00.918Z,96.34
2017-01-25T08:37:00.900Z,95.87
2017-01-25T08:38:00.877Z,94.27
2017-01-25T08:39:00.865Z,93.61
2017-01-25T08:40:00.838Z,93.8
2017-01-25T08:41:00.820Z,96.63
2017-01-25T08:42:00.805Z,98.52
2017-01-25T08:43:00.787Z,98.33
2017-01-25T08:44:00.765Z,97.95
2017-01-25T08:45:00.744Z,96.06
2017-01-25T08:46:00.727Z,94.55
2017-01-25T08:47:00.706Z,93.7
2017-01-25T08:48:00.687Z,93.61
2017-01-25T08:49:00.666Z,95.92
2017-01-25T08:50:00.651Z,98.1
2017-01-25T08:51:00.635Z,99.32
2017-01-25T08:52:00.615Z,99.22
2017-01-25T08:53:00.596Z,97.95
2017-01-25T08:54:00.575Z,96.72
2017-01-25T08:55:00.553Z,97.53
2017-01-25T08:56:00.539Z,99.99
2017-01-25T08:57:00.520Z,99.99
2017-01-25T08:58:00.498Z,99.99
2017-01-25T08:59:00.480Z,98.71
2017-01-25T09:00:00.463Z,97.34
2017-01-25T09:01:00.441Z,97.62
2017-01-25T09:02:00.428Z,98.57
2017-01-25T09:03:00.405Z,99.88
2017-01-25T09:04:00.383Z,99.99
2017-01-25T09:05:00.373Z,99.99
2017-01-25T09:06:00.348Z,98.75
2017-01-25T09:07:00.329Z,98.75
2017-01-25T09:08:00.309Z,99.99
2017-01-25T09:09:00.310Z,99.99
2017-01-25T09:10:00.271Z,99.99
2017-01-25T09:11:00.255Z,99.99
2017-01-25T09:12:00.234Z,99.99
2017-01-25T09:13:00.218Z,99.99
2017-01-25T09:14:00.203Z,99.99
2017-01-25T09:15:00.187Z,99.99
2017-01-25T09:16:00.165Z,99.99
2017-01-25T09:17:00.544Z,99.99
2017-01-25T09:18:00.120Z,99.99
2017-01-25T09:19:00.108Z,99.99
2017-01-25T09:20:00.091Z,99.99
2017-01-25T09:21:00.065Z,99.99
2017-01-25T09:22:00.052Z,99.99
2017-01-25T09:23:00.034Z,99.99
2017-01-25T09:24:00.010Z,99.99
2017-01-25T09:24:59.994Z,99.99
2017-01-25T09:25:59.973Z,99.99
2017-01-25T09:26:59.959Z,99.99
2017-01-25T09:27:59.942Z,99.99
2017-01-25T09:28:59.921Z,99.99
2017-01-25T09:29:59.920Z,99.99
2017-01-25T09:30:59.884Z,99.99
2017-01-25T09:31:59.867Z,99.99
2017-01-25T09:32:59.846Z,99.99
2017-01-25T09:33:59.827Z,99.99
2017-01-25T09:34:59.805Z,99.99
2017-01-25T09:35:59.788Z,99.99
2017-01-25T09:36:59.773Z,99.99
2017-01-25T09:37:59.749Z,99.99
2017-01-25T09:38:59.743Z,99.99
2017-01-25T09:39:59.712Z,99.99
2017-01-25T09:40:59.697Z,99.99
2017-01-25T09:41:59.678Z,99.99
2017-01-25T09:42:59.657Z,99.99
2017-01-25T09:43:59.640Z,99.99
2017-01-25T09:44:59.630Z,99.99
2017-01-25T09:45:59.601Z,99.99
2017-01-25T09:46:59.585Z,99.99
2017-01-25T09:47:59.566Z,99.99
2017-01-25T09:48:59.548Z,99.99
2017-01-25T09:49:59.530Z,99.99
2017-01-25T09:50:59.516Z,99.99
2017-01-25T09:51:59.495Z,99.99
2017-01-25T09:52:59.476Z,99.99
2017-01-25T09:53:59.456Z,99.99
2017-01-25T09:54:59.442Z,99.99
2017-01-25T09:55:59.425Z,99.99
2017-01-25T09:56:59.400Z,99.99
2017-01-25T09:57:59.384Z,99.99
2017-01-25T09:58:59.370Z,99.99
2017-01-25T09:59:59.348Z,99.99
2017-01-25T10:00:59.332Z,99.99
2017-01-25T10:01:59.307Z,99.99
2017-01-25T10:02:59.295Z,99.99
2017-01-25T10:03:59.275Z,99.99
2017-01-25T10:04:59.260Z,99.99
2017-01-25T10:05:59.233Z,99.99
2017-01-25T10:06:59.217Z,99.99
2017-01-25T10:07:59.201Z,99.99
2017-01-25T10:08:59.182Z,99.99
2017-01-25T10:09:59.166Z,99.99
2017-01-25T10:10:59.147Z,99.99
2017-01-25T10:11:59.129Z,99.99
2017-01-25T10:12:59.111Z,99.99
2017-01-25T10:13:59.088Z,99.99
2017-01-25T10:14:59.478Z,99.99
2017-01-25T10:15:59.050Z,99.99
2017-01-25T10:16:59.033Z,99.99
2017-01-25T10:17:59.020Z,99.99
2017-01-25T10:18:59.001Z,99.99
2017-01-25T10:19:58.979Z,99.99
2017-01-25T10:20:58.964Z,99.99
2017-01-25T10:21:58.949Z,99.99
2017-01-25T10:22:58.926Z,99.99
2017-01-25T10:23:58.914Z,99.99
2017-01-25T10:24:58.890Z,99.99
2017-01-25T10:25:58.876Z,99.99
2017-01-25T10:26:58.858Z,99.99
2017-01-25T10:27:58.842Z,99.99
2017-01-25T10:28:58.824Z,99.99
2017-01-25T10:29:58.802Z,99.99
2017-01-25T10:30:58.784Z,99.99
2017-01-25T10:31:58.769Z,99.99
2017-01-25T10:32:58.750Z,99.99
2017-01-25T10:33:58.731Z,99.99
2017-01-25T10:34:58.716Z,99.99
2017-01-25T10:35:58.694Z,99.99
2017-01-25T10:36:58.692Z,99.99
2017-01-25T10:37:58.678Z,99.99
2017-01-25T10:38:58.643Z,99.99
2017-01-25T10:39:58.629Z,99.99
2017-01-25T10:40:58.611Z,99.99
2017-01-25T10:41:58.591Z,99.99
2017-01-25T10:42:58.578Z,99.99
2017-01-25T10:43:58.556Z,99.99
2017-01-25T10:44:58.536Z,99.99
2017-01-25T10:45:58.522Z,99.99
2017-01-25T10:46:58.504Z,99.99
2017-01-25T10:47:58.484Z,99.99
2017-01-25T10:48:58.466Z,99.99
2017-01-25T10:49:58.451Z,99.99
2017-01-25T10:50:58.434Z,99.99
2017-01-25T10:51:58.415Z,99.99
2017-01-25T10:52:58.404Z,99.99
2017-01-25T10:53:58.387Z,99.99
2017-01-25T10:54:58.371Z,99.99
2017-01-25T10:55:58.356Z,99.99
2017-01-25T10:56:58.337Z,99.99
2017-01-25T10:57:58.313Z,99.99
2017-01-25T10:58:58.299Z,99.99
2017-01-25T10:59:58.285Z,99.99
2017-01-25T11:00:58.267Z,99.99
2017-01-25T11:01:58.248Z,99.99
2017-01-25T11:02:58.232Z,99.99
2017-01-25T11:03:58.214Z,99.99
2017-01-25T11:04:58.200Z,99.99
2017-01-25T11:05:58.178Z,99.99
2017-01-25T11:06:58.158Z,99.99
2017-01-25T11:07:58.149Z,99.99
2017-01-25T11:08:58.132Z,99.99
2017-01-25T11:09:58.515Z,99.99
2017-01-25T11:10:58.096Z,99.99
2017-01-25T11:11:58.080Z,99.99
2017-01-25T11:12:58.061Z,99.99
2017-01-25T11:13:58.041Z,99.99
2017-01-25T11:14:58.032Z,99.99
2017-01-25T11:15:58.019Z,99.99
2017-01-25T11:16:57.991Z,99.99
2017-01-25T11:17:57.976Z,99.99
2017-01-25T11:18:57.961Z,99.99
2017-01-25T11:19:57.946Z,99.99
2017-01-25T11:20:57.926Z,99.99
2017-01-25T11:21:57.911Z,99.99
2017-01-25T11:22:57.895Z,99.99
2017-01-25T11:23:57.872Z,99.99
2017-01-25T11:24:57.860Z,99.99
2017-01-25T11:25:57.847Z,99.99
2017-01-25T11:26:57.826Z,99.99
2017-01-25T11:27:57.811Z,99.99
2017-01-25T11:28:57.791Z,99.99
2017-01-25T11:29:57.781Z,99.99
2017-01-25T11:30:57.764Z,99.99
2017-01-25T11:31:58.140Z,99.99
2017-01-25T11:32:57.720Z,99.99
2017-01-25T11:33:57.710Z,99.99
2017-01-25T11:34:57.690Z,99.99
2017-01-25T11:35:57.671Z,99.99
2017-01-25T11:36:57.656Z,99.99
2017-01-25T11:37:57.646Z,99.99
2017-01-25T11:38:57.626Z,99.99
2017-01-25T11:39:57.611Z,99.99
2017-01-25T11:40:57.596Z,99.99
2017-01-25T11:41:57.573Z,99.99
2017-01-25T11:42:57.562Z,99.99
2017-01-25T11:43:57.541Z,99.99
2017-01-25T11:44:57.529Z,99.99
2017-01-25T11:45:57.510Z,99.99
2017-01-25T11:46:57.515Z,99.99
2017-01-25T11:47:57.473Z,99.99
2017-01-25T11:48:57.457Z,99.99
2017-01-25T11:49:57.448Z,99.99
2017-01-25T11:50:57.425Z,99.99
2017-01-25T11:51:57.407Z,99.99
2017-01-25T11:52:57.400Z,99.99
2017-01-25T11:53:57.375Z,99.99
2017-01-25T11:54:57.360Z,99.99
2017-01-25T11:55:57.345Z,99.99
2017-01-25T11:56:57.328Z,99.99
2017-01-25T11:57:57.328Z,99.99
2017-01-25T11:58:57.295Z,99.99
2017-01-25T11:59:57.282Z,99.99
2017-01-25T12:00:57.267Z,99.99
2017-01-25T12:01:57.265Z,99.99
2017-01-25T12:02:57.231Z,99.99
2017-01-25T12:03:57.214Z,99.99
2017-01-25T12:04:57.200Z,99.99
2017-01-25T12:05:57.185Z,99.99
2017-01-25T12:06:57.171Z,99.99
2017-01-25T12:07:57.170Z,99.99
2017-01-25T12:08:57.140Z,99.99
2017-01-25T12:09:57.121Z,99.99
2017-01-25T12:10:57.104Z,99.99
2017-01-25T12:11:57.080Z,99.99
2017-01-25T12:12:57.074Z,99.99
2017-01-25T12:13:57.055Z,99.99
2017-01-25T12:14:57.037Z,99.99
2017-01-25T12:15:57.024Z,99.99
2017-01-25T12:16:57.005Z,99.99
2017-01-25T12:17:56.987Z,99.99
2017-01-25T12:18:56.972Z,99.99
2017-01-25T12:19:56.954Z,99.99
2017-01-25T12:20:56.935Z,99.99
2017-01-25T12:21:56.982Z,99.99
2017-01-25T12:22:56.911Z,99.99
2017-01-25T12:23:56.885Z,99.99
2017-01-25T12:24:56.870Z,99.99
2017-01-25T12:25:56.857Z,99.99
2017-01-25T12:26:56.838Z,99.99
2017-01-25T12:27:56.825Z,99.99
2017-01-25T12:28:56.803Z,99.99
2017-01-25T12:29:56.804Z,99.99
2017-01-25T12:30:56.771Z,99.99
2017-01-25T12:31:56.757Z,99.99
2017-01-25T12:32:56.742Z,99.99
2017-01-25T12:33:56.731Z,99.99
2017-01-25T12:34:56.708Z,99.99
2017-01-25T12:35:56.691Z,99.99
2017-01-25T12:36:56.682Z,99.99
2017-01-25T12:37:56.661Z,99.99
2017-01-25T12:38:56.643Z,99.99
2017-01-25T12:39:56.627Z,99.99
2017-01-25T12:40:56.613Z,99.99
2017-01-25T12:41:56.593Z,99.99
2017-01-25T12:42:56.575Z,99.99
2017-01-25T12:43:56.560Z,99.99
2017-01-25T12:44:56.545Z,99.99
2017-01-25T12:45:56.532Z,99.99
2017-01-25T12:46:56.510Z,99.99
2017-01-25T12:47:56.498Z,99.99
2017-01-25T12:48:56.486Z,99.99
2017-01-25T12:49:56.461Z,99.99
2017-01-25T12:50:56.453Z,99.99
2017-01-25T12:51:56.436Z,99.99
2017-01-25T12:52:56.419Z,99.99
2017-01-25T12:53:56.800Z,99.99
2017-01-25T12:54:56.384Z,99.99
2017-01-25T12:55:56.370Z,99.99
2017-01-25T12:56:56.356Z,99.99
2017-01-25T12:57:56.341Z,99.99
2017-01-25T12:58:56.322Z,99.99
2017-01-25T12:59:56.305Z,99.99
2017-01-25T13:00:56.291Z,99.99
2017-01-25T13:01:56.276Z,99.99
2017-01-25T13:02:56.255Z,99.99
2017-01-25T13:03:56.242Z,99.99
2017-01-25T13:04:56.224Z,99.99
2017-01-25T13:05:56.211Z,99.99
2017-01-25T13:06:56.191Z,99.99
2017-01-25T13:07:56.177Z,99.99
2017-01-25T13:08:56.167Z,99.99
2017-01-25T13:09:56.143Z,99.99
2017-01-25T13:10:56.126Z,99.99
2017-01-25T13:11:56.111Z,99.99
2017-01-25T13:12:56.102Z,99.99
2017-01-25T13:13:56.081Z,99.99
2017-01-25T13:14:56.065Z,99.99
2017-01-25T13:15:56.050Z,99.99
2017-01-25T13:16:56.035Z,99.99
2017-01-25T13:17:56.013Z,99.99
2017-01-25T13:18:56.000Z,99.99
2017-01-25T13:19:56.387Z,99.99
2017-01-25T13:20:55.964Z,99.99
2017-01-25T13:21:55.978Z,99.99
2017-01-25T13:22:55.933Z,99.99
2017-01-25T13:23:55.921Z,99.99
2017-01-25T13:24:55.902Z,99.99
2017-01-25T13:25:55.886Z,99.99
2017-01-25T13:26:55.868Z,99.99
2017-01-25T13:27:55.856Z,99.99
2017-01-25T13:28:55.879Z,99.99
2017-01-25T13:29:55.820Z,99.99
2017-01-25T13:30:55.806Z,99.99
2017-01-25T13:31:55.787Z,99.99
2017-01-25T13:32:55.768Z,99.99
2017-01-25T13:33:55.758Z,99.99
2017-01-25T13:34:55.739Z,99.99
2017-01-25T13:35:55.727Z,99.99
2017-01-25T13:36:55.712Z,99.99
2017-01-25T13:37:55.698Z,99.99
2017-01-25T13:38:55.676Z,99.99
2017-01-25T13:39:55.655Z,99.99
2017-01-25T13:40:55.639Z,99.99
2017-01-25T13:41:55.628Z,99.99
2017-01-25T13:42:55.619Z,99.99
2017-01-25T13:43:55.593Z,99.99
2017-01-25T13:44:55.585Z,99.99
2017-01-25T13:45:55.561Z,99.99
2017-01-25T13:46:55.544Z,99.99
2017-01-25T13:47:55.535Z,99.99
2017-01-25T13:48:55.511Z,99.99
2017-01-25T13:49:55.499Z,99.99
2017-01-25T13:50:55.478Z,99.99
2017-01-25T13:51:55.467Z,99.99
2017-01-25T13:52:55.451Z,99.99
2017-01-25T13:53:55.433Z,99.99
2017-01-25T13:54:55.419Z,99.99
2017-01-25T13:55:55.406Z,99.99
2017-01-25T13:56:55.386Z,99.99
2017-01-25T13:57:55.401Z,99.99
2017-01-25T13:58:55.345Z,99.99
2017-01-25T13:59:55.333Z,99.99
2017-01-25T14:00:55.316Z,99.99
2017-01-25T14:01:55.296Z,99.99
2017-01-25T14:02:55.292Z,99.99
2017-01-25T14:03:55.263Z,99.99
2017-01-25T14:04:55.250Z,99.99
2017-01-25T14:05:55.242Z,99.99
2017-01-25T14:06:55.219Z,99.99
2017-01-25T14:07:55.204Z,99.99
2017-01-25T14:08:55.183Z,99.99
2017-01-25T14:09:55.175Z,99.99
2017-01-25T14:10:55.155Z,99.99
2017-01-25T14:11:55.145Z,99.99
2017-01-25T14:12:55.118Z,99.99
2017-01-25T14:13:55.101Z,99.99
2017-01-25T14:14:55.085Z,99.99
2017-01-25T14:15:55.067Z,99.99
2017-01-25T14:16:55.055Z,99.99
2017-01-25T14:17:55.133Z,99.99
2017-01-25T14:18:55.020Z,99.99
2017-01-25T14:19:55.005Z,99.99
2017-01-25T14:20:54.984Z,99.99
2017-01-25T14:21:54.977Z,99.99
2017-01-25T14:22:54.954Z,99.99
2017-01-25T14:23:54.937Z,99.99
2017-01-25T14:24:54.923Z,99.99
2017-01-25T14:25:54.994Z,99.99
2017-01-25T14:26:54.934Z,99.99
2017-01-25T14:27:54.878Z,99.99
2017-01-25T14:28:54.858Z,99.99
2017-01-25T14:29:54.835Z,99.99
2017-01-25T14:30:54.825Z,99.99
2017-01-25T14:31:54.806Z,99.99
2017-01-25T14:32:54.836Z,99.99
2017-01-25T14:33:54.830Z,99.99
2017-01-25T14:34:54.752Z,99.99
2017-01-25T14:35:54.737Z,99.99
2017-01-25T14:36:54.719Z,99.99
2017-01-25T14:37:54.702Z,99.99
2017-01-25T14:38:54.693Z,99.99
2017-01-25T14:39:54.670Z,99.99
2017-01-25T14:40:54.655Z,99.99
2017-01-25T14:41:54.634Z,99.99
2017-01-25T14:42:54.618Z,99.99
2017-01-25T14:43:54.600Z,99.99
2017-01-25T14:44:54.588Z,99.99
2017-01-25T14:45:54.592Z,99.99
2017-01-25T14:46:54.550Z,99.99
2017-01-25T14:47:54.538Z,99.99
2017-01-25T14:48:54.520Z,99.99
2017-01-25T14:49:54.501Z,99.99
2017-01-25T14:50:54.486Z,99.99
2017-01-25T14:51:54.471Z,99.99
2017-01-25T14:52:54.446Z,99.99
2017-01-25T14:53:54.439Z,99.99
2017-01-25T14:54:54.419Z,99.99
2017-01-25T14:55:54.404Z,99.99
2017-01-25T14:56:54.383Z,99.99
2017-01-25T14:57:54.363Z,99.99
2017-01-25T14:58:54.351Z,99.99
2017-01-25T14:59:54.336Z,99.99
2017-01-25T15:00:54.322Z,99.99
2017-01-25T15:01:54.300Z,99.99
2017-01-25T15:02:54.282Z,99.99
2017-01-25T15:03:54.261Z,99.99
2017-01-25T15:04:54.246Z,99.99
2017-01-25T15:05:54.227Z,99.99
2017-01-25T15:06:54.212Z,99.99
2017-01-25T15:07:54.193Z,99.99
2017-01-25T15:08:54.184Z,99.99
2017-01-25T15:09:54.160Z,99.99
2017-01-25T15:10:54.145Z,99.99
2017-01-25T15:11:54.128Z,99.99
2017-01-25T15:12:54.108Z,99.99
2017-01-25T15:13:54.094Z,99.99
2017-01-25T15:14:54.077Z,99.99
2017-01-25T15:15:54.059Z,99.99
2017-01-25T15:16:54.039Z,99.99
2017-01-25T15:17:54.026Z,99.99
2017-01-25T15:18:54.006Z,99.99
2017-01-25T15:19:53.985Z,99.99
2017-01-25T15:20:53.967Z,99.99
2017-01-25T15:21:53.961Z,99.99
2017-01-25T15:22:53.940Z,99.99
2017-01-25T15:23:53.914Z,99.99
2017-01-25T15:24:53.901Z,99.99
2017-01-25T15:25:53.880Z,99.99
2017-01-25T15:26:53.864Z,99.99
2017-01-25T15:27:53.848Z,99.99
2017-01-25T15:28:53.831Z,99.99
2017-01-25T15:29:53.818Z,99.99
2017-01-25T15:30:53.800Z,99.99
2017-01-25T15:31:53.781Z,99.99
2017-01-25T15:32:53.762Z,99.99
2017-01-25T15:33:53.744Z,99.99
2017-01-25T15:34:53.722Z,99.99
2017-01-25T15:35:53.715Z,99.99
2017-01-25T15:36:53.692Z,99.99
2017-01-25T15:37:53.669Z,99.99
2017-01-25T15:38:53.649Z,99.99
2017-01-25T15:39:53.636Z,99.99
2017-01-25T15:40:53.620Z,99.99
2017-01-25T15:41:53.599Z,99.99
2017-01-25T15:42:53.585Z,99.99
2017-01-25T15:43:53.566Z,99.99
2017-01-25T15:44:53.545Z,99.99
2017-01-25T15:45:53.527Z,99.99
2017-01-25T15:46:53.512Z,99.99
2017-01-25T15:47:53.494Z,99.99
2017-01-25T15:48:53.473Z,99.99
2017-01-25T15:49:53.465Z,99.99
2017-01-25T15:50:53.441Z,99.99
2017-01-25T15:51:53.425Z,99.99
2017-01-25T15:52:53.406Z,99.99
2017-01-25T15:53:53.386Z,99.99
2017-01-25T15:54:53.369Z,99.99
2017-01-25T15:55:53.349Z,99.99
2017-01-25T15:56:53.332Z,99.99
2017-01-25T15:57:53.323Z,99.99
2017-01-25T15:58:53.298Z,99.99
2017-01-25T15:59:53.286Z,99.99
2017-01-25T16:00:53.262Z,99.99
2017-01-25T16:01:53.244Z,99.99